Bernardston, Massachusetts
Current Conditions -  °F | °C
As of 3:31 AM on Tuesday 27 Jan 2015 (Local Time) from KORE Reporting Station
Moderate Snow Moderate Snow  
Wind Chill:   Ceiling: 900
Heat Index: 14°   Visibility: 0.5mi
Dew Point:   Wind: 12mph
Humidity: 80%   Direction: 10°N
Pressure: 29.77"   Gusts: 24mph
Location:  42.67°N, 72.55°W
Report Text: KORE 270831Z AUTO 01010G21KT 1/2SM SN VV009 M10/M13 A2977 RMK AO2 P0000 T11001128
Loading
Personal Weather Stations






























Interactive Weather Map New forecast layout! Learn more

10-Day Weather Forecast

Advertisements
Track Severe Weather on mobile